createdAt,value
2018-08-27T00:01:00.623Z,9.3
2018-08-27T00:02:07.833Z,9.3
2018-08-27T00:03:15.050Z,9.2
2018-08-27T00:04:21.987Z,9.2
2018-08-27T00:05:29.250Z,9.2
2018-08-27T00:06:36.466Z,9.2
2018-08-27T00:07:43.420Z,9.2
2018-08-27T00:08:50.644Z,9.2
2018-08-27T00:09:57.871Z,9.2
2018-08-27T00:11:05.094Z,9.2
2018-08-27T00:12:12.311Z,9.2
2018-08-27T00:13:19.579Z,9.1
2018-08-27T00:14:26.794Z,9.1
2018-08-27T00:15:34.010Z,9.1
2018-08-27T00:16:41.225Z,9.1
2018-08-27T00:17:48.647Z,9.1
2018-08-27T00:18:55.608Z,9.1
2018-08-27T00:20:02.817Z,9.1
2018-08-27T00:21:10.052Z,9.1
2018-08-27T00:22:17.264Z,9.1
2018-08-27T00:23:24.496Z,9.1
2018-08-27T00:24:31.717Z,9.1
2018-08-27T00:25:38.948Z,9.1
2018-08-27T00:26:46.165Z,9.1
2018-08-27T00:27:53.399Z,9.1
2018-08-27T00:29:00.614Z,9
2018-08-27T00:30:07.832Z,9.1
2018-08-27T00:31:15.043Z,9.1
2018-08-27T00:32:21.707Z,9.1
2018-08-27T00:33:28.652Z,9.1
2018-08-27T00:34:35.883Z,9.1
2018-08-27T00:35:43.097Z,9.1
2018-08-27T00:36:50.045Z,9.1
2018-08-27T00:37:57.259Z,9.1
2018-08-27T00:39:04.530Z,9.1
2018-08-27T00:40:11.756Z,9.1
2018-08-27T00:41:18.987Z,9.1
2018-08-27T00:42:26.199Z,9.1
2018-08-27T00:43:33.130Z,9.1
2018-08-27T00:44:40.344Z,9.1
2018-08-27T00:45:47.576Z,9.2
2018-08-27T00:46:54.792Z,9.2
2018-08-27T00:48:01.748Z,9.2
2018-08-27T00:49:08.969Z,9.2
2018-08-27T00:50:15.919Z,9.2
2018-08-27T00:51:22.851Z,9.2
2018-08-27T00:52:30.067Z,9.2
2018-08-27T00:53:37.285Z,9.1
2018-08-27T00:54:44.495Z,9.2
2018-08-27T00:55:51.711Z,9.2
2018-08-27T00:56:58.949Z,9.3
2018-08-27T00:58:06.170Z,9.3
2018-08-27T00:59:13.391Z,9.3
2018-08-27T01:00:20.609Z,9.3
2018-08-27T01:01:27.829Z,9.3
2018-08-27T01:02:35.039Z,9.3
2018-08-27T01:03:42.272Z,9.4
2018-08-27T01:04:49.496Z,9.4
2018-08-27T01:05:56.753Z,9.4
2018-08-27T01:07:03.981Z,9.3
2018-08-27T01:08:11.192Z,9.3
2018-08-27T01:09:18.406Z,9.3
2018-08-27T01:10:25.621Z,9.3
2018-08-27T01:11:32.832Z,9.3
2018-08-27T01:12:40.049Z,9.3
2018-08-27T01:13:47.261Z,9.3
2018-08-27T01:14:54.489Z,9.3
2018-08-27T01:16:01.698Z,9.3
2018-08-27T01:17:08.925Z,9.3
2018-08-27T01:18:16.137Z,9.3
2018-08-27T01:19:23.357Z,9.3
2018-08-27T01:20:30.574Z,9.4
2018-08-27T01:21:37.506Z,9.4
2018-08-27T01:22:44.714Z,9.4
2018-08-27T01:23:51.931Z,9.4
2018-08-27T01:24:58.869Z,9.4
2018-08-27T01:26:06.082Z,9.4
2018-08-27T01:27:13.315Z,9.4
2018-08-27T01:28:20.541Z,9.4
2018-08-27T01:29:27.761Z,9.3
2018-08-27T01:30:34.973Z,9.3
2018-08-27T01:31:42.189Z,9.3
2018-08-27T01:32:49.414Z,9.3
2018-08-27T01:33:56.631Z,9.3
2018-08-27T01:35:03.887Z,9.2
2018-08-27T01:36:11.102Z,9.2
2018-08-27T01:37:18.041Z,9.2
2018-08-27T01:38:25.255Z,9.2
2018-08-27T01:39:32.209Z,9.2
2018-08-27T01:40:39.425Z,9.2
2018-08-27T01:41:46.639Z,9.1
2018-08-27T01:42:53.581Z,9.1
2018-08-27T01:44:00.798Z,9.1
2018-08-27T01:45:08.014Z,9.1
2018-08-27T01:46:15.228Z,9.1
2018-08-27T01:47:22.443Z,9.1
2018-08-27T01:48:29.659Z,9.1
2018-08-27T01:49:36.872Z,9.1
2018-08-27T01:50:44.090Z,9.1
2018-08-27T01:51:51.307Z,9.1
2018-08-27T01:52:58.522Z,9.1
2018-08-27T01:54:05.741Z,9.1
2018-08-27T01:55:12.955Z,9.1
2018-08-27T01:56:20.167Z,9.1
2018-08-27T01:57:27.383Z,9.1
2018-08-27T01:58:34.603Z,9.1
2018-08-27T01:59:41.826Z,9
2018-08-27T02:00:48.772Z,9
2018-08-27T02:01:56.000Z,9
2018-08-27T02:03:03.213Z,9
2018-08-27T02:04:10.429Z,9
2018-08-27T02:05:17.645Z,9
2018-08-27T02:06:24.857Z,9.1
2018-08-27T02:07:32.072Z,9.1
2018-08-27T02:08:39.283Z,9.1
2018-08-27T02:09:46.502Z,9.1
2018-08-27T02:10:53.709Z,9.1
2018-08-27T02:12:00.648Z,9.1
2018-08-27T02:13:07.567Z,9.2
2018-08-27T02:14:14.782Z,9.3
2018-08-27T02:15:21.999Z,9.3
2018-08-27T02:16:29.215Z,9.4
2018-08-27T02:17:36.420Z,9.4
2018-08-27T02:18:43.359Z,9.4
2018-08-27T02:19:50.598Z,9.3
2018-08-27T02:20:57.835Z,9.4
2018-08-27T02:22:05.203Z,9.4
2018-08-27T02:23:12.422Z,9.4
2018-08-27T02:24:19.640Z,9.4
2018-08-27T02:25:26.875Z,9.5
2018-08-27T02:26:33.811Z,9.5
2018-08-27T02:27:41.036Z,9.6
2018-08-27T02:28:48.247Z,9.6
2018-08-27T02:29:55.477Z,9.7
2018-08-27T02:31:02.697Z,9.7
2018-08-27T02:32:09.911Z,9.7
2018-08-27T02:33:17.128Z,9.7
2018-08-27T02:34:24.093Z,9.7
2018-08-27T02:35:31.033Z,9.7
2018-08-27T02:36:38.250Z,9.7
2018-08-27T02:37:45.183Z,9.8
2018-08-27T02:38:52.400Z,9.7
2018-08-27T02:39:59.613Z,9.7
2018-08-27T02:41:06.831Z,9.6
2018-08-27T02:42:14.060Z,9.6
2018-08-27T02:43:21.271Z,9.6
2018-08-27T02:44:28.483Z,9.6
2018-08-27T02:45:35.153Z,9.5
2018-08-27T02:46:42.372Z,9.5
2018-08-27T02:47:49.310Z,9.4
2018-08-27T02:48:56.570Z,9.4
2018-08-27T02:50:03.783Z,9.4
2018-08-27T02:51:11.001Z,9.4
2018-08-27T02:52:17.956Z,9.3
2018-08-27T02:53:25.166Z,9.3
2018-08-27T02:54:32.383Z,9.3
2018-08-27T02:55:39.601Z,9.3
2018-08-27T02:56:46.536Z,9.3
2018-08-27T02:57:53.746Z,9.3
2018-08-27T02:59:00.975Z,9.2
2018-08-27T03:00:07.929Z,9.2
2018-08-27T03:01:15.145Z,9.2
2018-08-27T03:02:22.358Z,9.2
2018-08-27T03:03:29.588Z,9.2
2018-08-27T03:04:36.807Z,9.2
2018-08-27T03:05:43.754Z,9.2
2018-08-27T03:06:50.962Z,9.2
2018-08-27T03:07:58.175Z,9.2
2018-08-27T03:09:05.384Z,9.2
2018-08-27T03:10:12.599Z,9.2
2018-08-27T03:11:19.814Z,9.2
2018-08-27T03:12:27.031Z,9.2
2018-08-27T03:13:34.243Z,9.2
2018-08-27T03:14:41.452Z,9.2
2018-08-27T03:15:48.662Z,9.2
2018-08-27T03:16:55.896Z,9.2
2018-08-27T03:18:03.111Z,9.2
2018-08-27T03:19:10.347Z,9.2
2018-08-27T03:20:17.559Z,9.2
2018-08-27T03:21:24.505Z,9.2
2018-08-27T03:22:31.719Z,9.2
2018-08-27T03:23:38.940Z,9.2
2018-08-27T03:24:46.225Z,9.2
2018-08-27T03:25:53.477Z,9.2
2018-08-27T03:27:00.687Z,9.2
2018-08-27T03:28:07.915Z,9.3
2018-08-27T03:29:15.137Z,9.4
2018-08-27T03:30:22.360Z,9.3
2018-08-27T03:31:29.575Z,9.4
2018-08-27T03:32:36.788Z,9.5
2018-08-27T03:33:43.723Z,9.5
2018-08-27T03:34:50.938Z,9.6
2018-08-27T03:35:58.157Z,9.7
2018-08-27T03:37:05.362Z,9.8
2018-08-27T03:38:12.583Z,9.9
2018-08-27T03:39:19.525Z,10
2018-08-27T03:40:26.494Z,10.1
2018-08-27T03:41:33.733Z,10.2
2018-08-27T03:42:40.946Z,10.2
2018-08-27T03:43:48.170Z,10.3
2018-08-27T03:44:55.392Z,10.3
2018-08-27T03:46:02.621Z,10.3
2018-08-27T03:47:09.835Z,10.4
2018-08-27T03:48:17.051Z,10.4
2018-08-27T03:49:24.265Z,10.4
2018-08-27T03:50:31.476Z,10.5
2018-08-27T03:51:38.699Z,10.5
2018-08-27T03:52:45.905Z,10.4
2018-08-27T03:53:53.117Z,10.4
2018-08-27T03:55:00.347Z,10.4
2018-08-27T03:56:07.562Z,10.4
2018-08-27T03:57:14.525Z,10.4
2018-08-27T03:58:21.741Z,10.4
2018-08-27T03:59:28.953Z,10.4
2018-08-27T04:00:36.166Z,10.4
2018-08-27T04:01:43.390Z,10.4
2018-08-27T04:02:50.319Z,10.4
2018-08-27T04:03:57.539Z,10.4
2018-08-27T04:05:04.542Z,10.4
2018-08-27T04:06:11.847Z,10.4
2018-08-27T04:07:18.784Z,10.4
2018-08-27T04:08:26.005Z,10.3
2018-08-27T04:09:33.218Z,10.3
2018-08-27T04:10:39.911Z,10.3
2018-08-27T04:11:47.124Z,10.3
2018-08-27T04:12:54.334Z,10.2
2018-08-27T04:14:01.544Z,10.2
2018-08-27T04:15:08.753Z,10.2
2018-08-27T04:16:16.190Z,10.2
2018-08-27T04:17:23.408Z,10.3
2018-08-27T04:18:30.618Z,10.3
2018-08-27T04:19:37.828Z,10.3
2018-08-27T04:20:45.050Z,10.3
2018-08-27T04:21:52.265Z,10.4
2018-08-27T04:22:59.486Z,10.4
2018-08-27T04:24:06.702Z,10.4
2018-08-27T04:25:14.112Z,10.4
2018-08-27T04:26:21.375Z,10.4
2018-08-27T04:27:28.297Z,10.4
2018-08-27T04:28:35.360Z,10.4
2018-08-27T04:29:42.569Z,10.4
2018-08-27T04:30:49.783Z,10.5
2018-08-27T04:31:57.000Z,10.6
2018-08-27T04:33:04.233Z,10.6
2018-08-27T04:34:11.447Z,10.6
2018-08-27T04:35:18.708Z,10.7
2018-08-27T04:36:25.650Z,10.7
2018-08-27T04:37:32.866Z,10.8
2018-08-27T04:38:40.076Z,10.8
2018-08-27T04:39:47.288Z,10.8
2018-08-27T04:40:54.504Z,10.9
2018-08-27T04:42:01.441Z,10.9
2018-08-27T04:43:08.657Z,11
2018-08-27T04:44:15.611Z,11
2018-08-27T04:45:22.821Z,11
2018-08-27T04:46:30.034Z,11
2018-08-27T04:47:37.253Z,11.1
2018-08-27T04:48:44.478Z,11.1
2018-08-27T04:49:51.702Z,11.1
2018-08-27T04:50:58.936Z,11.1
2018-08-27T04:52:06.157Z,11.2
2018-08-27T04:53:13.195Z,11.2
2018-08-27T04:54:20.403Z,11.2
2018-08-27T04:55:27.334Z,11.3
2018-08-27T04:56:34.550Z,11.3
2018-08-27T04:57:41.714Z,11.3
2018-08-27T04:58:48.952Z,11.3
2018-08-27T04:59:56.167Z,11.3
2018-08-27T05:01:03.109Z,11.4
2018-08-27T05:02:10.349Z,11.4
2018-08-27T05:03:17.556Z,11.4
2018-08-27T05:04:24.494Z,11.4
2018-08-27T05:05:31.447Z,11.4
2018-08-27T05:06:38.677Z,11.5
2018-08-27T05:07:45.894Z,11.5
2018-08-27T05:08:53.111Z,11.5
2018-08-27T05:10:00.331Z,11.5
2018-08-27T05:11:07.545Z,11.5
2018-08-27T05:12:14.758Z,11.6
2018-08-27T05:13:21.968Z,11.6
2018-08-27T05:14:29.188Z,11.6
2018-08-27T05:15:36.414Z,11.6
2018-08-27T05:16:43.351Z,11.7
2018-08-27T05:17:50.569Z,11.7
2018-08-27T05:18:57.554Z,11.7
2018-08-27T05:20:04.852Z,11.8
2018-08-27T05:21:12.072Z,11.8
2018-08-27T05:22:19.027Z,11.8
2018-08-27T05:23:26.251Z,11.8
2018-08-27T05:24:33.461Z,11.9
2018-08-27T05:25:40.680Z,11.9
2018-08-27T05:26:47.900Z,12
2018-08-27T05:27:55.117Z,12
2018-08-27T05:29:02.050Z,12
2018-08-27T05:30:09.270Z,12.1
2018-08-27T05:31:16.614Z,12.1
2018-08-27T05:32:23.950Z,12.2
2018-08-27T05:33:31.178Z,12.2
2018-08-27T05:34:38.401Z,12.2
2018-08-27T05:35:45.617Z,12.2
2018-08-27T05:36:52.836Z,12.3
2018-08-27T05:38:00.074Z,12.3
2018-08-27T05:39:07.354Z,12.4
2018-08-27T05:40:14.294Z,12.4
2018-08-27T05:41:21.513Z,12.4
2018-08-27T05:42:28.737Z,12.4
2018-08-27T05:43:35.953Z,12.4
2018-08-27T05:44:43.203Z,12.4
2018-08-27T05:45:50.406Z,12.5
2018-08-27T05:46:57.355Z,12.5
2018-08-27T05:48:04.572Z,12.6
2018-08-27T05:49:11.784Z,12.6
2018-08-27T05:50:18.995Z,12.6
2018-08-27T05:51:26.211Z,12.6
2018-08-27T05:52:33.425Z,12.6
2018-08-27T05:53:40.637Z,12.7
2018-08-27T05:54:47.849Z,12.7
2018-08-27T05:55:55.064Z,12.7
2018-08-27T05:57:02.290Z,12.7
2018-08-27T05:58:09.518Z,12.8
2018-08-27T05:59:16.741Z,12.8
2018-08-27T06:00:23.975Z,12.8
2018-08-27T06:01:31.286Z,12.8
2018-08-27T06:02:38.704Z,12.9
2018-08-27T06:03:45.916Z,12.9
2018-08-27T06:04:53.164Z,12.9
2018-08-27T06:06:00.383Z,12.9
2018-08-27T06:07:07.599Z,12.9
2018-08-27T06:08:14.546Z,13
2018-08-27T06:09:21.757Z,13
2018-08-27T06:10:28.980Z,13.1
2018-08-27T06:11:35.926Z,13.2
2018-08-27T06:12:43.143Z,13.2
2018-08-27T06:13:50.363Z,13.2
2018-08-27T06:14:57.577Z,13.3
2018-08-27T06:16:04.904Z,13.3
2018-08-27T06:17:12.311Z,13.4
2018-08-27T06:18:19.800Z,13.3
2018-08-27T06:19:27.015Z,13.4
2018-08-27T06:20:34.245Z,13.4
2018-08-27T06:21:41.458Z,13.4
2018-08-27T06:22:48.677Z,13.4
2018-08-27T06:23:55.900Z,13.4
2018-08-27T06:25:03.224Z,13.5
2018-08-27T06:26:10.766Z,13.5
2018-08-27T06:27:18.002Z,13.6
2018-08-27T06:28:25.219Z,13.6
2018-08-27T06:29:32.164Z,13.7
2018-08-27T06:30:39.381Z,13.7
2018-08-27T06:31:46.601Z,13.8
2018-08-27T06:32:53.548Z,13.8
2018-08-27T06:34:00.765Z,13.8
2018-08-27T06:35:07.984Z,13.8
2018-08-27T06:36:15.387Z,13.8
2018-08-27T06:37:22.600Z,13.9
2018-08-27T06:38:29.881Z,14
2018-08-27T06:39:37.100Z,14.1
2018-08-27T06:40:44.314Z,14.1
2018-08-27T06:41:51.535Z,14.2
2018-08-27T06:42:58.750Z,14.2
2018-08-27T06:44:05.965Z,14.3
2018-08-27T06:45:12.905Z,14.3
2018-08-27T06:46:20.279Z,14.4
2018-08-27T06:47:27.701Z,14.5
2018-08-27T06:48:34.921Z,14.5
2018-08-27T06:49:42.128Z,14.5
2018-08-27T06:50:49.345Z,14.5
2018-08-27T06:51:56.572Z,14.5
2018-08-27T06:53:03.792Z,14.6
2018-08-27T06:54:11.007Z,14.6
2018-08-27T06:55:17.946Z,14.7
2018-08-27T06:56:25.166Z,14.8
2018-08-27T06:57:32.381Z,14.8
2018-08-27T06:58:39.598Z,14.9
2018-08-27T06:59:46.812Z,14.9
2018-08-27T07:00:54.027Z,14.9
2018-08-27T07:02:01.246Z,15
2018-08-27T07:03:08.460Z,15
2018-08-27T07:04:15.685Z,14.9
2018-08-27T07:05:22.926Z,14.9
2018-08-27T07:06:30.140Z,15
2018-08-27T07:07:37.454Z,15
2018-08-27T07:08:44.895Z,15.1
2018-08-27T07:09:52.108Z,15
2018-08-27T07:10:59.344Z,15
2018-08-27T07:12:06.562Z,15.1
2018-08-27T07:13:13.783Z,15.2
2018-08-27T07:14:20.999Z,15.2
2018-08-27T07:15:27.934Z,15.3
2018-08-27T07:16:34.878Z,15.4
2018-08-27T07:17:42.088Z,15.4
2018-08-27T07:18:49.324Z,15.4
2018-08-27T07:19:56.548Z,15.5
2018-08-27T07:21:03.761Z,15.6
2018-08-27T07:22:10.982Z,15.6
2018-08-27T07:23:18.205Z,15.7
2018-08-27T07:24:25.446Z,15.7
2018-08-27T07:25:32.650Z,15.9
2018-08-27T07:26:39.866Z,16.1
2018-08-27T07:27:47.102Z,16.3
2018-08-27T07:28:54.323Z,16.4
2018-08-27T07:30:01.556Z,16.4
2018-08-27T07:31:08.788Z,16.4
2018-08-27T07:32:15.730Z,16.5
2018-08-27T07:33:22.955Z,16.6
2018-08-27T07:34:29.895Z,16.6
2018-08-27T07:35:37.250Z,16.6
2018-08-27T07:36:45.133Z,16.5
2018-08-27T07:37:52.474Z,16.5
2018-08-27T07:38:59.696Z,16.4
2018-08-27T07:40:06.917Z,16.4
2018-08-27T07:41:14.162Z,16.4
2018-08-27T07:42:21.376Z,16.3
2018-08-27T07:43:28.675Z,16.4
2018-08-27T07:44:36.054Z,16.3
2018-08-27T07:45:43.268Z,16.4
2018-08-27T07:46:50.515Z,16.4
2018-08-27T07:47:57.786Z,16.6
2018-08-27T07:49:05.001Z,16.7
2018-08-27T07:50:12.219Z,16.9
2018-08-27T07:51:19.611Z,17.1
2018-08-27T07:52:27.067Z,17
2018-08-27T07:53:34.316Z,17.1
2018-08-27T07:54:41.531Z,17
2018-08-27T07:55:48.471Z,17
2018-08-27T07:56:55.713Z,17
2018-08-27T07:58:02.939Z,17.1
2018-08-27T07:59:10.160Z,17.2
2018-08-27T08:00:17.379Z,17.2
2018-08-27T08:01:24.599Z,17.2
2018-08-27T08:02:31.819Z,17.1
2018-08-27T08:03:39.039Z,17.2
2018-08-27T08:04:46.492Z,17.2
2018-08-27T08:05:53.859Z,17.2
2018-08-27T08:07:01.080Z,17.2
2018-08-27T08:08:08.299Z,17.3
2018-08-27T08:09:15.539Z,17.3
2018-08-27T08:10:22.756Z,17.4
2018-08-27T08:11:29.983Z,17.5
2018-08-27T08:12:37.198Z,17.4
2018-08-27T08:13:44.422Z,17.3
2018-08-27T08:14:51.646Z,17.4
2018-08-27T08:15:58.865Z,17.5
2018-08-27T08:17:06.080Z,17.6
2018-08-27T08:18:12.744Z,17.7
2018-08-27T08:19:19.960Z,17.8
2018-08-27T08:20:27.173Z,17.8
2018-08-27T08:21:34.389Z,17.9
2018-08-27T08:22:41.690Z,18.1
2018-08-27T08:23:48.996Z,18.1
2018-08-27T08:24:56.215Z,18.1
2018-08-27T08:26:03.431Z,18.1
2018-08-27T08:27:10.652Z,18.1
2018-08-27T08:28:17.878Z,18.1
2018-08-27T08:29:25.089Z,18
2018-08-27T08:30:32.307Z,18
2018-08-27T08:31:39.521Z,18
2018-08-27T08:32:46.748Z,18.1
2018-08-27T08:33:53.980Z,18.1
2018-08-27T08:35:01.205Z,18.1
2018-08-27T08:36:08.143Z,18.1
2018-08-27T08:37:15.085Z,18.1
2018-08-27T08:38:22.303Z,18.1
2018-08-27T08:39:29.525Z,18.1
2018-08-27T08:40:36.747Z,18.1
2018-08-27T08:41:43.966Z,18.2
2018-08-27T08:42:51.185Z,18.4
2018-08-27T08:43:57.853Z,18.4
2018-08-27T08:45:04.798Z,18.5
2018-08-27T08:46:12.015Z,18.5
2018-08-27T08:47:19.234Z,18.5
2018-08-27T08:48:26.454Z,18.6
2018-08-27T08:49:33.407Z,18.6
2018-08-27T08:50:40.629Z,18.6
2018-08-27T08:51:47.848Z,18.6
2018-08-27T08:52:55.078Z,18.6
2018-08-27T08:54:02.303Z,18.7
2018-08-27T08:55:09.531Z,18.7
2018-08-27T08:56:16.755Z,18.8
2018-08-27T08:57:23.975Z,18.7
2018-08-27T08:58:31.196Z,18.7
2018-08-27T08:59:38.421Z,18.7
2018-08-27T09:00:45.650Z,18.7
2018-08-27T09:01:52.608Z,18.6
2018-08-27T09:02:59.825Z,18.5
2018-08-27T09:04:07.054Z,18.5
2018-08-27T09:05:14.281Z,18.5
2018-08-27T09:06:21.713Z,18.5
2018-08-27T09:07:29.168Z,18.6
2018-08-27T09:08:36.717Z,18.6
2018-08-27T09:09:44.171Z,18.7
2018-08-27T09:10:51.412Z,18.8
2018-08-27T09:11:58.627Z,18.8
2018-08-27T09:13:05.845Z,18.7
2018-08-27T09:14:13.083Z,18.8
2018-08-27T09:15:20.332Z,18.8
2018-08-27T09:16:27.788Z,18.9
2018-08-27T09:17:35.223Z,18.9
2018-08-27T09:18:42.913Z,18.8
2018-08-27T09:19:50.133Z,18.8
2018-08-27T09:20:57.390Z,18.8
2018-08-27T09:22:04.622Z,18.9
2018-08-27T09:23:11.847Z,19
2018-08-27T09:24:19.067Z,18.9
2018-08-27T09:25:26.304Z,18.8
2018-08-27T09:26:33.525Z,18.9
2018-08-27T09:27:40.771Z,18.9
2018-08-27T09:28:47.994Z,18.9
2018-08-27T09:29:55.170Z,18.7
2018-08-27T09:31:02.394Z,18.6
2018-08-27T09:32:09.631Z,18.5
2018-08-27T09:33:17.168Z,18.5
2018-08-27T09:34:24.371Z,18.6
2018-08-27T09:35:31.320Z,18.4
2018-08-27T09:36:38.556Z,18.3
2018-08-27T09:37:45.784Z,18.4
2018-08-27T09:38:53.224Z,18.4
2018-08-27T09:40:00.451Z,18.4
2018-08-27T09:41:07.900Z,18.4
2018-08-27T09:42:15.122Z,18.4
2018-08-27T09:43:22.360Z,18.3
2018-08-27T09:44:29.586Z,18.2
2018-08-27T09:45:36.826Z,18.2
2018-08-27T09:46:44.060Z,18.2
2018-08-27T09:47:51.611Z,18.3
2018-08-27T09:48:58.848Z,18.3
2018-08-27T09:50:06.089Z,18.3
2018-08-27T09:51:13.038Z,18.4
2018-08-27T09:52:20.280Z,18.3
2018-08-27T09:53:27.509Z,18.2
2018-08-27T09:54:34.751Z,18.1
2018-08-27T09:55:41.984Z,18
2018-08-27T09:56:49.222Z,18
2018-08-27T09:57:56.456Z,18
2018-08-27T09:59:03.595Z,18.1
2018-08-27T10:00:10.947Z,18.1
2018-08-27T10:01:18.118Z,18.1
2018-08-27T10:02:25.059Z,18.1
2018-08-27T10:03:32.497Z,18.1
2018-08-27T10:04:39.726Z,18.2
2018-08-27T10:05:47.180Z,18.2
2018-08-27T10:06:54.430Z,18.2
2018-08-27T10:08:01.673Z,18.3
2018-08-27T10:09:09.131Z,18.2
2018-08-27T10:10:16.730Z,18.3
2018-08-27T10:11:23.963Z,18.2
2018-08-27T10:12:31.243Z,18.4
2018-08-27T10:13:38.460Z,18.5
2018-08-27T10:14:45.997Z,18.6
2018-08-27T10:15:53.260Z,18.7
2018-08-27T10:17:00.488Z,18.8
2018-08-27T10:18:07.717Z,18.9
2018-08-27T10:19:14.956Z,18.9
2018-08-27T10:20:22.196Z,18.8
2018-08-27T10:21:29.431Z,18.8
2018-08-27T10:22:36.875Z,18.7
2018-08-27T10:23:43.704Z,18.6
2018-08-27T10:24:50.943Z,18.6
2018-08-27T10:25:58.199Z,18.5
2018-08-27T10:27:05.433Z,18.7
2018-08-27T10:28:12.597Z,18.6
2018-08-27T10:29:19.853Z,18.7
2018-08-27T10:30:27.077Z,18.7
2018-08-27T10:31:34.293Z,18.6
2018-08-27T10:32:41.531Z,18.6
2018-08-27T10:33:48.766Z,18.6
2018-08-27T10:34:55.708Z,18.6
2018-08-27T10:36:02.949Z,18.6
2018-08-27T10:37:10.297Z,18.5
2018-08-27T10:38:17.782Z,18.5
2018-08-27T10:39:25.025Z,18.6
2018-08-27T10:40:32.242Z,18.6
2018-08-27T10:41:39.699Z,18.7
2018-08-27T10:42:47.041Z,18.6
2018-08-27T10:43:54.179Z,18.7
2018-08-27T10:45:01.400Z,18.6
2018-08-27T10:46:08.635Z,18.7
2018-08-27T10:47:15.869Z,18.5
2018-08-27T10:48:23.107Z,18.6
2018-08-27T10:49:30.405Z,18.4
2018-08-27T10:50:37.369Z,18.5
2018-08-27T10:51:44.585Z,18.3
2018-08-27T10:52:51.877Z,18.3
2018-08-27T10:53:59.101Z,18.2
2018-08-27T10:55:06.543Z,18.2
2018-08-27T10:56:13.485Z,18.4
2018-08-27T10:57:20.734Z,18.6
2018-08-27T10:58:27.915Z,18.8
2018-08-27T10:59:35.486Z,18.9
2018-08-27T11:00:42.442Z,18.9
2018-08-27T11:01:49.685Z,19.1
2018-08-27T11:02:56.923Z,19.2
2018-08-27T11:04:04.163Z,19.2
2018-08-27T11:05:11.611Z,19.1
2018-08-27T11:06:19.213Z,19.3
2018-08-27T11:07:26.166Z,19.2
2018-08-27T11:08:33.408Z,19.3
2018-08-27T11:09:40.634Z,19.4
2018-08-27T11:10:48.114Z,19.2
2018-08-27T11:11:55.646Z,19.1
2018-08-27T11:13:02.869Z,19.3
2018-08-27T11:14:09.819Z,19.5
2018-08-27T11:15:17.042Z,19.7
2018-08-27T11:16:24.275Z,19.8
2018-08-27T11:17:31.487Z,19.7
2018-08-27T11:18:38.717Z,19.8
2018-08-27T11:19:46.218Z,19.9
2018-08-27T11:20:53.561Z,20
2018-08-27T11:22:00.779Z,20.1
2018-08-27T11:23:08.000Z,20.2
2018-08-27T11:24:15.216Z,20.2
2018-08-27T11:25:22.450Z,20.1
2018-08-27T11:26:29.984Z,19.9
2018-08-27T11:27:37.796Z,19.8
2018-08-27T11:28:45.232Z,19.8
2018-08-27T11:29:52.458Z,19.9
2018-08-27T11:30:59.911Z,20
2018-08-27T11:32:07.145Z,20
2018-08-27T11:33:14.593Z,20
2018-08-27T11:34:21.554Z,20
2018-08-27T11:35:28.798Z,20.1
2018-08-27T11:36:36.068Z,20.2
2018-08-27T11:37:43.287Z,20.3
2018-08-27T11:38:50.534Z,20.2
2018-08-27T11:39:57.787Z,20.3
2018-08-27T11:41:05.001Z,20.2
2018-08-27T11:42:12.230Z,20.3
2018-08-27T11:43:19.565Z,20.4
2018-08-27T11:44:26.897Z,20.4
2018-08-27T11:45:34.124Z,20.4
2018-08-27T11:46:41.348Z,20.5
2018-08-27T11:47:48.566Z,20.5
2018-08-27T11:48:55.806Z,20.6
2018-08-27T11:50:03.097Z,20.6
2018-08-27T11:51:10.641Z,20.6
2018-08-27T11:52:18.247Z,20.6
2018-08-27T11:53:25.479Z,20.6
2018-08-27T11:54:32.445Z,20.4
2018-08-27T11:55:39.685Z,20.3
2018-08-27T11:56:46.907Z,20.2
2018-08-27T11:57:54.129Z,20.3
2018-08-27T11:59:01.346Z,20.2
2018-08-27T12:00:08.803Z,20.3
2018-08-27T12:01:16.248Z,20.4
2018-08-27T12:02:23.728Z,20.3
2018-08-27T12:03:30.948Z,20.2
2018-08-27T12:04:38.188Z,20.3
2018-08-27T12:06:00.057Z,20.5
2018-08-27T12:07:07.302Z,20.9
2018-08-27T12:08:15.484Z,21.4
2018-08-27T12:09:22.725Z,21.5
2018-08-27T12:10:29.941Z,21.3
2018-08-27T12:11:37.163Z,21.2
2018-08-27T12:12:44.387Z,21.3
2018-08-27T12:13:51.620Z,21.4
2018-08-27T12:14:58.567Z,21.4
2018-08-27T12:16:05.818Z,21.4
2018-08-27T12:17:12.771Z,21.5
2018-08-27T12:18:19.996Z,21.6
2018-08-27T12:19:27.215Z,21.6
2018-08-27T12:20:34.433Z,21.6
2018-08-27T12:21:41.658Z,21.6
2018-08-27T12:22:48.877Z,21.6
2018-08-27T12:23:56.281Z,21.5
2018-08-27T12:25:03.853Z,21.5
2018-08-27T12:26:10.797Z,21.3
2018-08-27T12:27:17.746Z,21.3
2018-08-27T12:28:24.970Z,21.3
2018-08-27T12:29:32.209Z,21.4
2018-08-27T12:30:39.458Z,21.2
2018-08-27T12:31:46.685Z,21.2
2018-08-27T12:32:53.909Z,21.2
2018-08-27T12:34:01.147Z,21
2018-08-27T12:35:08.373Z,21.1
2018-08-27T12:36:15.618Z,21.3
2018-08-27T12:37:22.295Z,21.5
2018-08-27T12:38:28.982Z,21.5
2018-08-27T12:39:36.202Z,21.8
2018-08-27T12:40:43.723Z,22.1
2018-08-27T12:41:51.508Z,22.4
2018-08-27T12:42:58.743Z,22.2
2018-08-27T12:44:05.691Z,21.8
2018-08-27T12:45:12.928Z,21.6
2018-08-27T12:46:20.145Z,21.7
2018-08-27T12:47:27.094Z,21.9
2018-08-27T12:48:34.315Z,22.2
2018-08-27T12:49:41.266Z,22.3
2018-08-27T12:50:48.359Z,22.5
2018-08-27T12:51:55.825Z,22.6
2018-08-27T12:53:03.054Z,22.6
2018-08-27T12:54:10.271Z,22.6
2018-08-27T12:55:17.498Z,22.5
2018-08-27T12:56:24.464Z,22.3
2018-08-27T12:57:31.686Z,22.4
2018-08-27T12:58:38.953Z,22.2
2018-08-27T12:59:46.195Z,22.1
2018-08-27T13:00:53.435Z,22
2018-08-27T13:02:00.656Z,22.1
2018-08-27T13:03:07.617Z,22.1
2018-08-27T13:04:14.843Z,22.2
2018-08-27T13:05:22.066Z,22.3
2018-08-27T13:06:29.283Z,22.3
2018-08-27T13:07:36.533Z,22.2
2018-08-27T13:08:43.875Z,22.2
2018-08-27T13:09:51.092Z,22
2018-08-27T13:10:58.311Z,22
2018-08-27T13:12:05.530Z,21.8
2018-08-27T13:13:12.750Z,21.9
2018-08-27T13:14:19.977Z,21.8
2018-08-27T13:15:26.937Z,21.8
2018-08-27T13:16:34.161Z,21.7
2018-08-27T13:17:41.391Z,21.6
2018-08-27T13:18:48.652Z,21.7
2018-08-27T13:19:55.879Z,21.6
2018-08-27T13:21:02.829Z,21.5
2018-08-27T13:22:10.049Z,21.7
2018-08-27T13:23:17.273Z,21.9
2018-08-27T13:24:24.496Z,22.1
2018-08-27T13:25:31.784Z,22.2
2018-08-27T13:26:39.038Z,22.3
2018-08-27T13:27:46.320Z,22.2
2018-08-27T13:28:53.549Z,22.2
2018-08-27T13:30:00.781Z,22.3
2018-08-27T13:31:07.993Z,22.4
2018-08-27T13:32:15.208Z,22.4
2018-08-27T13:33:22.178Z,22.3
2018-08-27T13:34:29.137Z,22.4
2018-08-27T13:35:36.485Z,22.3
2018-08-27T13:36:43.726Z,22.2
2018-08-27T13:37:50.680Z,22.3
2018-08-27T13:38:57.939Z,22.3
2018-08-27T13:40:05.264Z,22.1
2018-08-27T13:41:12.210Z,22
2018-08-27T13:42:19.430Z,21.7
2018-08-27T13:43:26.402Z,21.6
2018-08-27T13:44:33.617Z,21.7
2018-08-27T13:45:40.844Z,21.7
2018-08-27T13:46:47.797Z,21.6
2018-08-27T13:47:55.021Z,21.6
2018-08-27T13:49:02.268Z,21.7
2018-08-27T13:50:09.493Z,21.8
2018-08-27T13:51:16.724Z,22
2018-08-27T13:52:23.977Z,22.3
2018-08-27T13:53:31.198Z,22.6
2018-08-27T13:54:38.441Z,22.6
2018-08-27T13:55:45.388Z,22.8
2018-08-27T13:56:52.337Z,22.9
2018-08-27T13:57:59.562Z,22.7
2018-08-27T13:59:06.509Z,22.5
2018-08-27T14:00:13.775Z,22.3
2018-08-27T14:01:21.056Z,22.3
2018-08-27T14:02:28.280Z,22.2
2018-08-27T14:03:35.516Z,22.2
2018-08-27T14:04:42.744Z,22.3
2018-08-27T14:05:49.989Z,22.5
2018-08-27T14:06:56.946Z,22.3
2018-08-27T14:08:04.170Z,22.3
2018-08-27T14:09:11.503Z,22.3
2018-08-27T14:10:18.779Z,22.1
2018-08-27T14:11:26.004Z,21.9
2018-08-27T14:12:33.225Z,21.9
2018-08-27T14:13:40.475Z,21.9
2018-08-27T14:14:47.797Z,21.8
2018-08-27T14:15:55.302Z,21.8
2018-08-27T14:17:02.242Z,22
2018-08-27T14:18:09.465Z,22
2018-08-27T14:19:16.609Z,22
2018-08-27T14:20:24.392Z,22.1
2018-08-27T14:21:31.637Z,21.9
2018-08-27T14:22:38.862Z,21.9
2018-08-27T14:23:46.081Z,21.9
2018-08-27T14:24:53.302Z,21.8
2018-08-27T14:26:00.737Z,21.6
2018-08-27T14:27:08.454Z,21.6
2018-08-27T14:28:15.674Z,21.7
2018-08-27T14:29:22.639Z,21.6
2018-08-27T14:30:29.871Z,21.6
2018-08-27T14:31:37.130Z,21.8
2018-08-27T14:32:44.511Z,21.8
2018-08-27T14:33:51.811Z,21.9
2018-08-27T14:34:59.025Z,21.9
2018-08-27T14:36:06.254Z,22.1
2018-08-27T14:37:13.467Z,22.2
2018-08-27T14:38:20.693Z,22.3
2018-08-27T14:39:27.907Z,22.2
2018-08-27T14:40:34.855Z,22.1
2018-08-27T14:41:42.078Z,21.9
2018-08-27T14:42:49.308Z,21.8
2018-08-27T14:43:56.527Z,21.8
2018-08-27T14:45:04.038Z,21.7
2018-08-27T14:46:11.574Z,21.7
2018-08-27T14:47:18.514Z,21.7
2018-08-27T14:48:25.738Z,21.8
2018-08-27T14:49:32.963Z,21.9
2018-08-27T14:50:40.179Z,21.9
2018-08-27T14:51:47.403Z,21.9
2018-08-27T14:52:54.644Z,21.9
2018-08-27T14:54:01.869Z,22
2018-08-27T14:55:09.106Z,22
2018-08-27T14:56:16.329Z,22
2018-08-27T14:57:23.550Z,22.2
2018-08-27T14:58:30.491Z,22.2
2018-08-27T14:59:37.715Z,22.3
2018-08-27T15:00:44.640Z,22.4
2018-08-27T15:01:51.858Z,22.4
2018-08-27T15:02:58.805Z,22.1
2018-08-27T15:04:06.031Z,22
2018-08-27T15:05:13.264Z,21.9
2018-08-27T15:06:20.502Z,21.9